Grimstead, Virginia
Current Conditions -  °F | °C
As of 6:55 AM on Thursday 23 Oct 2014 (Local Time) from KW75 Reporting Station
Overcast Overcast  
Wind Chill: 54°   Ceiling: 3100
Heat Index: 54°   Visibility: 10mi
Dew Point: 44°   Wind: 12mph
Humidity: 71%   Direction: 310°NW
Pressure: 29.87"   Gusts: 25mph
Location:  37.5°N, 76.3°W
Report Text: KW75 231055Z AUTO 31010G22KT 280V360 10SM OVC031 12/07 A2987 RMK AO1 T01200069
Loading
Personal Weather Stations






























Interactive Weather Map
Tropical Storm Tracking
New forecast layout! Learn more

10-Day Weather Forecast

Advertisements
Track Severe Weather on mobile